createdAt,value
2022-11-05T00:00:32.520Z,36.00
2022-11-05T00:03:18.422Z,35.53
2022-11-05T00:06:05.233Z,32.47
2022-11-05T00:08:51.401Z,39.77
2022-11-05T00:11:42.471Z,36.20
2022-11-05T00:14:28.404Z,33.93
2022-11-05T00:16:57.258Z,36.07
2022-11-05T00:19:25.779Z,34.97
2022-11-05T00:22:11.937Z,34.17
2022-11-05T00:24:58.128Z,36.73
2022-11-05T00:27:27.939Z,30.87
2022-11-05T00:29:56.465Z,27.17
2022-11-05T00:32:25.273Z,36.03
2022-11-05T00:34:54.121Z,32.53
2022-11-05T00:37:22.744Z,34.27
2022-11-05T00:39:51.218Z,40.57
2022-11-05T00:42:37.285Z,34.50
2022-11-05T00:45:08.832Z,28.93
2022-11-05T00:47:54.741Z,43.00
2022-11-05T00:50:24.237Z,35.30
2022-11-05T00:52:56.552Z,32.20
2022-11-05T00:55:26.573Z,36.63
2022-11-05T00:57:55.098Z,34.90
2022-11-05T01:00:26.299Z,38.50
2022-11-05T01:02:55.037Z,35.77
2022-11-05T01:05:23.609Z,35.87
2022-11-05T01:07:54.019Z,38.50
2022-11-05T01:10:23.668Z,38.00
2022-11-05T01:12:52.371Z,39.77
2022-11-05T01:15:21.517Z,32.97
2022-11-05T01:17:52.321Z,34.50
2022-11-05T01:20:20.837Z,42.40
2022-11-05T01:22:49.468Z,37.60
2022-11-05T01:25:18.103Z,38.47
2022-11-05T01:27:46.725Z,33.53
2022-11-05T01:30:15.475Z,38.67
2022-11-05T01:32:46.522Z,35.00
2022-11-05T01:35:17.873Z,25.80
2022-11-05T01:37:47.440Z,28.67
2022-11-05T01:40:17.997Z,25.27
2022-11-05T01:42:46.902Z,35.27
2022-11-05T01:45:19.293Z,36.90
2022-11-05T01:48:09.392Z,33.27
2022-11-05T01:50:44.466Z,37.00
2022-11-05T01:53:21.429Z,29.03
2022-11-05T01:55:54.893Z,39.83
2022-11-05T01:58:27.435Z,34.50
2022-11-05T02:00:57.307Z,26.93
2022-11-05T02:03:26.733Z,24.00
2022-11-05T02:05:58.602Z,20.40
2022-11-05T02:08:38.797Z,32.87
2022-11-05T02:11:07.502Z,28.17
2022-11-05T02:13:37.580Z,26.63
2022-11-05T02:16:14.937Z,33.57
2022-11-05T02:18:53.338Z,24.37
2022-11-05T02:21:46.408Z,22.93
2022-11-05T02:24:50.780Z,24.53
2022-11-05T02:27:26.301Z,29.50
2022-11-05T02:30:13.182Z,28.50
2022-11-05T02:33:04.595Z,24.70
2022-11-05T02:35:54.090Z,40.63
2022-11-05T02:38:37.130Z,32.30
2022-11-05T02:41:11.381Z,33.03
2022-11-05T02:43:48.126Z,29.33
2022-11-05T02:46:26.818Z,36.23
2022-11-05T02:49:04.288Z,38.00
2022-11-05T02:51:40.136Z,37.70
2022-11-05T02:54:15.322Z,36.40
2022-11-05T02:56:47.660Z,31.17
2022-11-05T02:59:16.221Z,30.20
2022-11-05T03:01:46.898Z,32.10
2022-11-05T03:04:20.934Z,39.53
2022-11-05T03:07:17.582Z,41.57
2022-11-05T03:10:16.173Z,30.23
2022-11-05T03:12:56.989Z,38.00
2022-11-05T03:15:40.260Z,36.40
2022-11-05T03:18:16.084Z,48.87
2022-11-05T03:20:51.300Z,35.47
2022-11-05T03:23:28.496Z,39.87
2022-11-05T03:26:00.606Z,43.73
2022-11-05T03:28:34.078Z,48.27
2022-11-05T03:31:03.961Z,45.67
2022-11-05T03:33:34.817Z,35.43
2022-11-05T03:36:11.050Z,44.90
2022-11-05T03:38:42.715Z,23.37
2022-11-05T03:41:14.891Z,34.77
2022-11-05T03:43:47.954Z,45.83
2022-11-05T03:46:21.274Z,40.57
2022-11-05T03:48:52.973Z,42.83
2022-11-05T03:51:31.544Z,35.90
2022-11-05T03:54:03.230Z,41.63
2022-11-05T03:56:36.843Z,42.73
2022-11-05T03:59:07.604Z,46.13
2022-11-05T04:01:38.793Z,37.80
2022-11-05T04:04:08.391Z,32.80
2022-11-05T04:06:57.219Z,38.13
2022-11-05T04:09:43.346Z,44.90
2022-11-05T04:12:29.877Z,44.33
2022-11-05T04:14:58.641Z,40.83
2022-11-05T04:17:26.124Z,45.77
2022-11-05T04:20:17.139Z,37.10
2022-11-05T04:23:04.407Z,46.70
2022-11-05T04:25:32.980Z,43.17
2022-11-05T04:28:01.821Z,37.57
2022-11-05T04:30:29.264Z,33.70
2022-11-05T04:33:02.989Z,34.23
2022-11-05T04:35:33.422Z,37.23
2022-11-05T04:38:03.608Z,39.23
2022-11-05T04:40:32.209Z,42.60
2022-11-05T04:43:00.885Z,29.60
2022-11-05T04:45:32.034Z,35.67
2022-11-05T04:48:00.488Z,38.03
2022-11-05T04:50:29.217Z,39.60
2022-11-05T04:52:57.857Z,31.83
2022-11-05T04:55:28.486Z,33.70
2022-11-05T04:57:57.305Z,41.63
2022-11-05T05:00:26.455Z,44.50
2022-11-05T05:02:55.479Z,46.63
2022-11-05T05:05:24.140Z,43.60
2022-11-05T05:07:52.665Z,41.50
2022-11-05T05:10:21.267Z,37.10
2022-11-05T05:12:51.279Z,40.27
2022-11-05T05:15:20.131Z,39.63
2022-11-05T05:17:52.372Z,37.23
2022-11-05T05:20:38.643Z,39.43
2022-11-05T05:23:07.108Z,40.67
2022-11-05T05:25:35.654Z,41.40
2022-11-05T05:28:05.636Z,36.33
2022-11-05T05:30:34.154Z,37.23
2022-11-05T05:33:04.808Z,39.27
2022-11-05T05:35:33.492Z,46.60
2022-11-05T05:38:01.963Z,40.07
2022-11-05T05:40:30.403Z,40.73
2022-11-05T05:42:58.929Z,41.73
2022-11-05T05:45:28.699Z,36.30
2022-11-05T05:47:57.696Z,48.00
2022-11-05T05:50:26.234Z,47.17
2022-11-05T05:52:54.781Z,46.83
2022-11-05T05:55:23.243Z,40.13
2022-11-05T05:57:51.793Z,42.37
2022-11-05T06:00:20.439Z,46.43
2022-11-05T06:02:50.277Z,56.10
2022-11-05T06:05:18.915Z,44.70
2022-11-05T06:07:47.384Z,47.27
2022-11-05T06:10:15.993Z,49.23
2022-11-05T06:12:44.520Z,49.37
2022-11-05T06:15:13.080Z,42.40
2022-11-05T06:17:41.627Z,54.60
2022-11-05T06:20:12.734Z,51.50
2022-11-05T06:22:41.290Z,39.83
2022-11-05T06:25:10.979Z,46.30
2022-11-05T06:27:39.439Z,45.13
2022-11-05T06:30:09.224Z,43.10
2022-11-05T06:32:37.824Z,47.07
2022-11-05T06:35:06.716Z,60.33
2022-11-05T06:37:36.617Z,39.97
2022-11-05T06:40:05.652Z,39.30
2022-11-05T06:42:34.254Z,42.13
2022-11-05T06:45:02.972Z,44.40
2022-11-05T06:47:31.435Z,35.67
2022-11-05T06:49:59.903Z,45.13
2022-11-05T06:52:31.172Z,33.63
2022-11-05T06:55:01.012Z,41.60
2022-11-05T06:57:29.454Z,38.17
2022-11-05T07:00:02.281Z,51.33
2022-11-05T07:02:33.025Z,77.20
2022-11-05T07:05:01.528Z,49.00
2022-11-05T07:07:29.998Z,48.80
2022-11-05T07:10:00.028Z,42.70
2022-11-05T07:12:28.507Z,36.33
2022-11-05T07:14:56.971Z,31.90
2022-11-05T07:17:25.852Z,36.67
2022-11-05T07:19:54.421Z,34.47
2022-11-05T07:22:22.895Z,38.30
2022-11-05T07:24:51.352Z,49.80
2022-11-05T07:27:21.775Z,36.27
2022-11-05T07:29:50.224Z,43.20
2022-11-05T07:32:18.689Z,37.20
2022-11-05T07:34:47.135Z,37.20
2022-11-05T07:37:16.810Z,45.73
2022-11-05T07:39:45.275Z,44.53
2022-11-05T07:42:14.668Z,43.10
2022-11-05T07:44:44.536Z,43.37
2022-11-05T07:47:13.038Z,34.93
2022-11-05T07:49:41.499Z,32.40
2022-11-05T07:52:10.013Z,30.07
2022-11-05T07:54:38.555Z,27.07
2022-11-05T07:57:07.233Z,31.13
2022-11-05T07:59:35.754Z,33.73
2022-11-05T08:02:05.823Z,28.60
2022-11-05T08:04:34.647Z,31.00
2022-11-05T08:07:03.155Z,37.97
2022-11-05T08:09:31.549Z,27.77
2022-11-05T08:12:03.022Z,38.93
2022-11-05T08:14:31.942Z,32.17
2022-11-05T08:17:00.373Z,34.37
2022-11-05T08:19:30.203Z,39.90
2022-11-05T08:21:58.697Z,42.30
2022-11-05T08:24:27.093Z,33.70
2022-11-05T08:26:55.726Z,38.33
2022-11-05T08:29:24.189Z,33.20
2022-11-05T08:31:52.674Z,27.53
2022-11-05T08:34:21.158Z,33.87
2022-11-05T08:36:50.965Z,30.73
2022-11-05T08:39:19.923Z,30.87
2022-11-05T08:41:48.423Z,37.03
2022-11-05T08:44:16.841Z,28.77
2022-11-05T08:46:45.362Z,26.60
2022-11-05T08:49:14.149Z,25.23
2022-11-05T08:51:44.228Z,25.70
2022-11-05T08:54:14.440Z,24.70
2022-11-05T08:56:42.949Z,26.63
2022-11-05T08:59:11.540Z,28.13
2022-11-05T09:01:40.075Z,27.43
2022-11-05T09:04:08.643Z,25.63
2022-11-05T09:06:37.133Z,30.20
2022-11-05T09:09:05.701Z,27.63
2022-11-05T09:11:57.417Z,19.30
2022-11-05T09:14:26.987Z,19.60
2022-11-05T09:16:55.667Z,29.20
2022-11-05T09:19:24.206Z,24.87
2022-11-05T09:21:52.712Z,28.90
2022-11-05T09:24:21.258Z,32.73
2022-11-05T09:26:51.116Z,23.83
2022-11-05T09:29:19.627Z,19.90
2022-11-05T09:31:48.127Z,19.47
2022-11-05T09:34:17.166Z,18.07
2022-11-05T09:36:45.684Z,18.53
2022-11-05T09:39:14.260Z,17.20
2022-11-05T09:41:44.468Z,16.17
2022-11-05T09:44:19.124Z,21.30
2022-11-05T09:46:50.757Z,28.93
2022-11-05T09:49:27.497Z,24.27
2022-11-05T09:51:58.408Z,13.63
2022-11-05T09:54:31.566Z,22.97
2022-11-05T09:57:03.145Z,22.00
2022-11-05T09:59:40.516Z,21.27
2022-11-05T10:02:18.642Z,22.10
2022-11-05T10:04:51.130Z,17.30
2022-11-05T10:07:22.896Z,19.30
2022-11-05T10:09:56.000Z,21.53
2022-11-05T10:12:29.683Z,16.90
2022-11-05T10:15:11.890Z,13.90
2022-11-05T10:17:45.004Z,19.70
2022-11-05T10:20:23.409Z,27.20
2022-11-05T10:22:56.270Z,18.67
2022-11-05T10:25:28.758Z,13.70
2022-11-05T10:27:58.403Z,19.40
2022-11-05T10:30:28.338Z,19.77
2022-11-05T10:33:00.448Z,16.37
2022-11-05T10:35:32.557Z,17.77
2022-11-05T10:38:01.206Z,16.53
2022-11-05T10:40:39.535Z,12.03
2022-11-05T10:43:13.340Z,12.57
2022-11-05T10:45:50.938Z,19.00
2022-11-05T10:48:44.087Z,14.40
2022-11-05T10:51:13.665Z,18.63
2022-11-05T10:53:51.012Z,15.97
2022-11-05T10:56:37.721Z,19.63
2022-11-05T10:59:19.658Z,19.20
2022-11-05T11:01:56.709Z,16.03
2022-11-05T11:04:27.731Z,17.63
2022-11-05T11:06:59.595Z,20.07
2022-11-05T11:09:31.482Z,15.80
2022-11-05T11:12:06.415Z,13.03
2022-11-05T11:14:35.283Z,9.70
2022-11-05T11:17:28.577Z,29.70
2022-11-05T11:20:22.401Z,23.97
2022-11-05T11:23:13.124Z,8.70
2022-11-05T11:25:47.863Z,18.77
2022-11-05T11:28:23.848Z,10.17
2022-11-05T11:31:05.642Z,16.20
2022-11-05T11:33:37.732Z,10.83
2022-11-05T11:36:10.464Z,20.40
2022-11-05T11:38:39.778Z,9.33
2022-11-05T11:41:26.589Z,9.40
2022-11-05T11:44:12.658Z,12.33
2022-11-05T11:49:46.252Z,13.53
2022-11-05T11:52:16.609Z,7.20
2022-11-05T11:54:45.505Z,8.17
2022-11-05T11:57:26.107Z,6.47
2022-11-05T12:00:08.971Z,9.73
2022-11-05T12:03:06.332Z,8.83
2022-11-05T12:05:42.464Z,8.07
2022-11-05T12:08:33.007Z,13.83
2022-11-05T12:11:06.806Z,15.50
2022-11-05T12:14:00.195Z,13.73
2022-11-05T12:16:52.072Z,18.63
2022-11-05T12:19:32.908Z,20.03
2022-11-05T12:22:10.847Z,14.23
2022-11-05T12:24:55.634Z,17.93
2022-11-05T12:27:36.345Z,18.30
2022-11-05T12:30:09.824Z,10.30
2022-11-05T12:33:16.734Z,18.47
2022-11-05T12:35:58.286Z,15.73
2022-11-05T12:38:49.434Z,9.77
2022-11-05T12:41:26.025Z,10.23
2022-11-05T12:44:10.938Z,16.73
2022-11-05T12:46:47.213Z,11.70
2022-11-05T12:49:44.919Z,13.90
2022-11-05T12:52:30.008Z,4.87
2022-11-05T12:55:05.142Z,8.80
2022-11-05T12:57:37.434Z,11.00
2022-11-05T13:00:10.550Z,8.93
2022-11-05T13:02:46.375Z,8.33
2022-11-05T13:05:17.480Z,16.13
2022-11-05T13:07:52.954Z,9.17
2022-11-05T13:10:29.269Z,7.10
2022-11-05T13:13:05.957Z,26.10
2022-11-05T13:15:39.989Z,5.87
2022-11-05T13:18:14.445Z,5.67
2022-11-05T13:20:47.572Z,16.87
2022-11-05T13:23:26.072Z,11.70
2022-11-05T13:26:01.787Z,16.10
2022-11-05T13:28:39.723Z,23.17
2022-11-05T13:31:13.409Z,9.83
2022-11-05T13:33:45.277Z,7.67
2022-11-05T13:36:34.258Z,12.40
2022-11-05T13:39:09.411Z,12.00
2022-11-05T13:41:59.235Z,4.30
2022-11-05T13:44:56.472Z,13.03
2022-11-05T13:47:44.526Z,9.03
2022-11-05T13:50:29.961Z,9.00
2022-11-05T13:53:15.489Z,11.33
2022-11-05T13:55:57.666Z,8.87
2022-11-05T13:58:48.673Z,17.13
2022-11-05T14:01:29.679Z,17.47
2022-11-05T14:03:58.775Z,12.30
2022-11-05T14:06:29.497Z,7.93
2022-11-05T14:09:00.011Z,10.97
2022-11-05T14:11:31.198Z,7.93
2022-11-05T14:14:05.360Z,13.00
2022-11-05T14:16:48.665Z,10.10
2022-11-05T14:19:36.276Z,6.33
2022-11-05T14:22:29.980Z,16.00
2022-11-05T14:24:58.781Z,9.23
2022-11-05T14:27:48.126Z,15.63
2022-11-05T14:30:43.125Z,7.03
2022-11-05T14:33:19.075Z,9.97
2022-11-05T14:35:47.644Z,9.20
2022-11-05T14:38:24.866Z,9.83
2022-11-05T14:41:01.883Z,10.07
2022-11-05T14:43:33.395Z,5.80
2022-11-05T14:46:06.232Z,10.57
2022-11-05T14:48:40.725Z,8.53
2022-11-05T14:51:26.485Z,7.43
2022-11-05T14:54:03.695Z,6.77
2022-11-05T14:56:44.751Z,25.40
2022-11-05T14:59:49.689Z,16.43
2022-11-05T15:02:22.248Z,16.63
2022-11-05T15:04:53.142Z,144.77
2022-11-05T15:07:42.357Z,129.20
2022-11-05T15:10:15.255Z,90.40
2022-11-05T15:12:46.659Z,75.13
2022-11-05T15:15:22.704Z,25.50
2022-11-05T15:18:01.840Z,15.93
2022-11-05T15:20:40.116Z,20.93
2022-11-05T15:23:12.952Z,17.70
2022-11-05T15:25:52.894Z,22.37
2022-11-05T15:28:31.573Z,15.33
2022-11-05T15:31:02.887Z,24.60
2022-11-05T15:33:33.786Z,13.40
2022-11-05T15:36:18.825Z,27.30
2022-11-05T15:39:08.169Z,21.57
2022-11-05T15:41:36.224Z,18.90
2022-11-05T15:44:04.977Z,17.77
2022-11-05T15:46:33.741Z,19.30
2022-11-05T15:49:07.154Z,182.13
2022-11-05T15:51:36.233Z,262.47
2022-11-05T15:56:58.442Z,28.93
2022-11-05T15:59:29.665Z,16.10
2022-11-05T16:02:19.901Z,24.43
2022-11-05T16:04:50.629Z,16.67
2022-11-05T16:07:20.595Z,31.00
2022-11-05T16:09:54.915Z,22.97
2022-11-05T16:12:32.482Z,14.23
2022-11-05T16:15:04.898Z,20.70
2022-11-05T16:17:46.975Z,29.87
2022-11-05T16:20:29.691Z,28.23
2022-11-05T16:23:00.353Z,30.50
2022-11-05T16:25:35.900Z,31.73
2022-11-05T16:28:06.030Z,25.70
2022-11-05T16:30:34.641Z,23.53
2022-11-05T16:33:08.644Z,25.90
2022-11-05T16:35:47.943Z,35.10
2022-11-05T16:38:23.158Z,32.60
2022-11-05T16:40:51.603Z,38.60
2022-11-05T16:43:23.191Z,65.80
2022-11-05T16:45:53.905Z,56.50
2022-11-05T16:48:22.707Z,38.37
2022-11-05T16:50:52.644Z,34.20
2022-11-05T16:53:21.241Z,33.50
2022-11-05T16:55:50.448Z,34.10
2022-11-05T16:58:22.813Z,37.10
2022-11-05T17:00:53.403Z,28.80
2022-11-05T17:03:21.848Z,41.90
2022-11-05T17:05:51.770Z,27.90
2022-11-05T17:08:20.215Z,27.40
2022-11-05T17:10:48.769Z,31.50
2022-11-05T17:13:18.872Z,15.90
2022-11-05T17:15:50.509Z,24.13
2022-11-05T17:18:19.675Z,20.83
2022-11-05T17:20:51.012Z,39.90
2022-11-05T17:23:22.385Z,19.30
2022-11-05T17:25:52.436Z,24.73
2022-11-05T17:28:22.353Z,21.63
2022-11-05T17:30:53.028Z,33.70
2022-11-05T17:33:23.499Z,15.97
2022-11-05T17:35:52.703Z,22.83
2022-11-05T17:38:23.450Z,18.30
2022-11-05T17:40:52.210Z,23.13
2022-11-05T17:43:21.432Z,28.63
2022-11-05T17:45:51.961Z,25.60
2022-11-05T17:48:21.172Z,15.87
2022-11-05T17:50:51.257Z,32.33
2022-11-05T17:53:21.894Z,29.50
2022-11-05T17:55:50.661Z,23.93
2022-11-05T17:58:19.259Z,22.63
2022-11-05T18:00:48.658Z,26.57
2022-11-05T18:03:17.111Z,25.00
2022-11-05T18:05:45.618Z,19.03
2022-11-05T18:08:14.752Z,20.20
2022-11-05T18:10:45.178Z,21.37
2022-11-05T18:13:14.532Z,18.50
2022-11-05T18:15:43.678Z,21.97
2022-11-05T18:18:13.098Z,33.40
2022-11-05T18:20:43.217Z,25.03
2022-11-05T18:23:12.340Z,20.27
2022-11-05T18:25:43.360Z,22.80
2022-11-05T18:28:12.229Z,31.00
2022-11-05T18:30:41.022Z,26.93
2022-11-05T18:33:09.954Z,19.13
2022-11-05T18:35:42.608Z,22.20
2022-11-05T18:38:11.369Z,27.83
2022-11-05T18:40:40.021Z,23.97
2022-11-05T18:43:10.242Z,30.70
2022-11-05T18:45:39.063Z,30.67
2022-11-05T18:48:08.018Z,27.73
2022-11-05T18:50:41.001Z,26.87
2022-11-05T18:53:09.535Z,20.43
2022-11-05T18:55:40.413Z,22.90
2022-11-05T18:58:10.713Z,43.47
2022-11-05T19:00:41.020Z,23.60
2022-11-05T19:03:09.593Z,24.23
2022-11-05T19:05:38.426Z,24.67
2022-11-05T19:08:07.076Z,34.97
2022-11-05T19:10:35.617Z,26.07
2022-11-05T19:13:04.145Z,25.10
2022-11-05T19:15:34.824Z,22.67
2022-11-05T19:18:03.335Z,23.87
2022-11-05T19:20:37.496Z,23.13
2022-11-05T19:23:06.425Z,20.73
2022-11-05T19:25:34.982Z,26.50
2022-11-05T19:28:03.500Z,24.37
2022-11-05T19:30:33.564Z,29.80
2022-11-05T19:33:02.111Z,32.67
2022-11-05T19:35:30.662Z,22.83
2022-11-05T19:37:59.223Z,49.10
2022-11-05T19:40:27.815Z,42.77
2022-11-05T19:42:56.274Z,20.20
2022-11-05T19:45:43.745Z,29.60
2022-11-05T19:48:19.073Z,25.73
2022-11-05T19:50:48.637Z,26.73
2022-11-05T19:53:17.191Z,20.23
2022-11-05T19:55:45.831Z,30.47
2022-11-05T19:58:14.750Z,21.03
2022-11-05T20:00:43.622Z,27.40
2022-11-05T20:03:14.579Z,26.30
2022-11-05T20:05:43.310Z,24.03
2022-11-05T20:08:12.677Z,29.77
2022-11-05T20:10:41.402Z,29.50
2022-11-05T20:13:10.801Z,28.13
2022-11-05T20:15:41.818Z,24.60
2022-11-05T20:18:10.684Z,17.33
2022-11-05T20:20:41.825Z,22.90
2022-11-05T20:23:10.694Z,31.60
2022-11-05T20:25:39.371Z,20.77
2022-11-05T20:28:08.231Z,22.30
2022-11-05T20:30:36.857Z,20.87
2022-11-05T20:33:05.675Z,29.87
2022-11-05T20:35:34.509Z,22.13
2022-11-05T20:38:04.494Z,27.03
2022-11-05T20:40:33.194Z,33.63
2022-11-05T20:43:02.422Z,26.60
2022-11-05T20:45:31.284Z,25.23
2022-11-05T20:47:59.785Z,47.73
2022-11-05T20:50:28.430Z,26.90
2022-11-05T20:52:56.995Z,21.40
2022-11-05T20:55:26.985Z,32.60
2022-11-05T20:57:55.565Z,25.97
2022-11-05T21:00:24.517Z,31.80
2022-11-05T21:02:54.338Z,34.77
2022-11-05T21:05:23.313Z,36.93
2022-11-05T21:07:55.352Z,46.63
2022-11-05T21:10:24.130Z,42.93
2022-11-05T21:12:54.376Z,46.97
2022-11-05T21:15:23.286Z,39.60
2022-11-05T21:17:54.404Z,46.30
2022-11-05T21:20:23.412Z,57.67
2022-11-05T21:22:52.068Z,50.47
2022-11-05T21:25:20.790Z,48.87
2022-11-05T21:27:49.533Z,58.43
2022-11-05T21:30:22.880Z,45.80
2022-11-05T21:32:51.595Z,53.80
2022-11-05T21:35:20.362Z,44.30
2022-11-05T21:37:49.380Z,49.57
2022-11-05T21:40:18.489Z,60.20
2022-11-05T21:42:47.211Z,43.77
2022-11-05T21:45:16.023Z,36.07
2022-11-05T21:47:46.415Z,41.00
2022-11-05T21:50:19.448Z,28.07
2022-11-05T21:53:07.713Z,42.37
2022-11-05T21:55:53.676Z,25.73
2022-11-05T21:58:39.580Z,34.60
2022-11-05T22:01:08.451Z,33.53
2022-11-05T22:03:41.336Z,29.60
2022-11-05T22:06:10.200Z,35.20
2022-11-05T22:08:40.907Z,35.90
2022-11-05T22:11:09.849Z,27.80
2022-11-05T22:13:38.504Z,30.60
2022-11-05T22:16:07.908Z,29.67
2022-11-05T22:18:37.791Z,26.30
2022-11-05T22:21:06.811Z,37.83
2022-11-05T22:23:35.307Z,31.60
2022-11-05T22:26:03.957Z,36.50
2022-11-05T22:28:32.464Z,36.00
2022-11-05T22:31:02.295Z,28.70
2022-11-05T22:33:31.942Z,30.13
2022-11-05T22:36:01.993Z,45.73
2022-11-05T22:38:32.189Z,34.63
2022-11-05T22:41:00.926Z,27.17
2022-11-05T22:43:29.544Z,31.37
2022-11-05T22:46:03.712Z,31.60
2022-11-05T22:48:32.244Z,29.30
2022-11-05T22:51:06.107Z,37.23
2022-11-05T22:53:37.148Z,26.13
2022-11-05T22:56:07.471Z,29.10
2022-11-05T22:58:36.535Z,46.20
2022-11-05T23:01:05.600Z,35.23
2022-11-05T23:03:35.088Z,31.33
2022-11-05T23:06:07.538Z,29.63
2022-11-05T23:08:53.569Z,31.63
2022-11-05T23:11:38.520Z,30.40
2022-11-05T23:14:08.186Z,36.50
2022-11-05T23:16:54.834Z,39.33
2022-11-05T23:19:41.927Z,24.77
2022-11-05T23:22:32.006Z,20.97
2022-11-05T23:25:00.784Z,31.63
2022-11-05T23:27:31.553Z,27.87
2022-11-05T23:30:00.958Z,25.80
2022-11-05T23:32:30.229Z,18.83
2022-11-05T23:34:59.528Z,39.13
2022-11-05T23:37:48.513Z,22.60
2022-11-05T23:40:20.131Z,43.63
2022-11-05T23:43:06.461Z,31.33
2022-11-05T23:45:55.739Z,39.50
2022-11-05T23:48:28.597Z,37.70
2022-11-05T23:51:00.869Z,39.43
2022-11-05T23:53:32.294Z,54.53
2022-11-05T23:56:02.631Z,40.60
2022-11-05T23:58:31.235Z,36.10
